Time;durP1;ratioP1;P1;durP2;ratioP2;P2;SDS_P1;SDS_P2;PMS_P1;PMS_P2;Temp;Humidity;BMP_temperature;BMP_pressure;BME280_temperature;BME280_humidity;BME280_pressure;Samples;Min_cycle;Max_cycle;Signal;HPM_P1;HPM_P2
2023/05/19 00:10:44;;;;;;;11.00;7.10;;;;;;;16.44;62.44;100524.06;5014887;28;20148;-79
2023/05/19 00:23:57;;;;;;;9.02;5.90;;;;;;;16.52;62.17;100531.81;4937663;29;20402;-79
2023/05/19 00:27:25;;;;;;;7.40;5.85;;;;;;;16.56;61.97;100531.69;4899245;29;20431;-79
2023/05/19 00:31:30;;;;;;;8.48;5.38;;;;;;;16.53;61.97;100526.50;4920625;29;20133;-78
2023/05/19 00:34:22;;;;;;;7.15;5.80;;;;;;;16.58;61.85;100543.94;4880494;29;20053;-80
2023/05/19 00:37:56;;;;;;;7.47;5.78;;;;;;;16.58;61.95;100541.31;4874371;29;20061;-79
2023/05/19 00:40:40;;;;;;;6.10;5.30;;;;;;;16.61;62.13;100542.09;4865643;29;20472;-79
2023/05/19 01:04:15;;;;;;;4.35;3.63;;;;;;;16.82;61.30;100546.03;4896754;29;20051;-79
2023/05/19 01:06:57;;;;;;;4.82;3.70;;;;;;;16.78;61.03;100541.72;4916968;29;20048;-78
2023/05/19 01:09:58;;;;;;;10.10;4.35;;;;;;;16.80;61.26;100553.06;4917384;29;20048;-79
2023/05/19 01:21:37;;;;;;;2.80;2.50;;;;;;;16.80;61.08;100558.31;4967158;28;20049;-80
2023/05/19 01:26:06;;;;;;;3.50;2.67;;;;;;;16.80;61.35;100567.97;4978782;28;20077;-81
2023/05/19 01:30:22;;;;;;;3.20;2.22;;;;;;;16.84;61.27;100567.00;4902050;29;20055;-81
2023/05/19 01:33:33;;;;;;;7.65;2.80;;;;;;;16.75;61.15;100552.31;4966936;28;20055;-82
2023/05/19 01:37:16;;;;;;;6.90;2.65;;;;;;;16.82;61.33;100567.03;4956630;29;20589;-80
2023/05/19 01:40:02;;;;;;;3.25;2.40;;;;;;;16.79;61.11;100569.75;4956828;28;20192;-80
2023/05/19 01:52:45;;;;;;;1.88;1.60;;;;;;;16.82;60.85;100582.81;4907891;29;20117;-80
2023/05/19 02:09:32;;;;;;;3.83;1.60;;;;;;;16.64;60.88;100598.97;4935245;29;20082;-82
2023/05/19 02:18:10;;;;;;;2.40;1.20;;;;;;;16.48;60.56;100604.53;4851865;29;20068;-80
2023/05/19 02:24:59;;;;;;;3.92;1.50;;;;;;;16.36;60.22;100602.19;4897368;29;20055;-81
2023/05/19 02:27:51;;;;;;;4.15;1.85;;;;;;;16.19;60.45;100592.88;4937140;29;20064;-80
2023/05/19 02:30:54;;;;;;;1.90;1.38;;;;;;;16.17;60.71;100612.16;4963562;28;20047;-81
2023/05/19 02:34:17;;;;;;;2.20;1.40;;;;;;;16.20;60.61;100602.50;4974214;28;20499;-81
2023/05/19 02:37:16;;;;;;;1.30;1.20;;;;;;;16.22;60.43;100608.53;4951605;29;20059;-79
2023/05/19 02:53:54;;;;;;;2.40;1.52;;;;;;;16.10;60.92;100616.66;4867563;29;20080;-79
2023/05/19 02:57:08;;;;;;;5.50;1.65;;;;;;;15.98;60.37;100609.03;4865493;29;20109;-78
2023/05/19 02:59:34;;;;;;;5.65;1.75;;;;;;;15.91;60.78;100616.13;4866579;29;20045;-79
2023/05/19 03:02:05;;;;;;;5.00;1.63;;;;;;;15.90;60.68;100628.41;4881658;29;20056;-79
2023/05/19 03:04:44;;;;;;;5.80;1.90;;;;;;;15.88;60.52;100635.44;4900039;29;20055;-78
2023/05/19 03:07:47;;;;;;;4.05;1.98;;;;;;;15.82;60.63;100636.38;4964057;28;20051;-76
2023/05/19 03:11:17;;;;;;;2.63;2.40;;;;;;;15.65;60.52;100627.94;4994378;28;20054;-80
2023/05/19 03:13:47;;;;;;;2.90;2.03;;;;;;;15.62;60.01;100639.34;4996188;28;20536;-80
2023/05/19 03:20:48;;;;;;;9.10;2.33;;;;;;;15.36;60.31;100658.97;4970192;28;20447;-79
2023/05/19 03:24:25;;;;;;;3.80;2.35;;;;;;;15.29;60.60;100659.09;5016252;28;20515;-78
2023/05/19 03:27:31;;;;;;;5.15;2.45;;;;;;;15.27;60.63;100663.47;4899111;29;20060;-79
2023/05/19 03:30:33;;;;;;;3.05;2.58;;;;;;;15.27;60.71;100659.13;4873416;29;20519;-78
2023/05/19 03:37:27;;;;;;;5.60;2.45;;;;;;;15.13;60.48;100684.63;4885755;29;20023;-79
2023/05/19 03:39:53;;;;;;;3.00;2.30;;;;;;;15.06;60.36;100676.00;4849907;29;20051;-81
2023/05/19 03:42:20;;;;;;;4.95;2.70;;;;;;;14.99;59.90;100688.31;4863709;29;20432;-79
2023/05/19 03:44:55;;;;;;;3.15;2.40;;;;;;;14.97;60.54;100691.88;4908969;29;20112;-80
2023/05/19 03:47:26;;;;;;;4.95;2.97;;;;;;;15.05;60.52;100685.63;4923892;29;20055;-80
2023/05/19 03:50:10;;;;;;;3.75;2.58;;;;;;;15.06;59.93;100684.75;4940736;29;20478;-80
2023/05/19 03:53:12;;;;;;;2.90;1.98;;;;;;;14.96;59.51;100687.50;4941758;29;20090;-79
2023/05/19 03:56:26;;;;;;;3.30;2.30;;;;;;;14.84;58.64;100692.00;4947538;29;20062;-80
2023/05/19 03:59:07;;;;;;;5.18;2.10;;;;;;;14.83;59.18;100705.13;4944559;29;20490;-80
2023/05/19 04:01:54;;;;;;;3.83;2.20;;;;;;;14.85;58.57;100703.38;4941715;29;20043;-81
2023/05/19 04:05:03;;;;;;;7.53;2.78;;;;;;;14.79;58.19;100701.66;4957394;29;20604;-79
2023/05/19 04:07:51;;;;;;;6.68;2.40;;;;;;;14.78;58.00;100696.47;4956595;29;20051;-79
2023/05/19 04:10:22;;;;;;;4.32;2.38;;;;;;;14.83;57.56;100698.13;4956202;29;20176;-78
2023/05/19 04:13:20;;;;;;;3.22;2.00;;;;;;;14.97;57.30;100708.44;4941205;29;20059;-77
2023/05/19 04:16:09;;;;;;;6.78;2.40;;;;;;;15.03;57.01;100710.09;4953461;28;20156;-76
2023/05/19 04:18:49;;;;;;;3.58;2.45;;;;;;;15.09;56.93;100698.69;5037448;28;20048;-79
2023/05/19 04:21:21;;;;;;;4.00;2.63;;;;;;;15.17;56.28;100705.56;5037375;28;20037;-78
2023/05/19 04:23:58;;;;;;;4.32;2.97;;;;;;;15.26;56.49;100703.69;5045208;28;20491;-78
2023/05/19 04:31:28;;;;;;;6.43;2.60;;;;;;;15.41;56.21;100708.75;4985206;28;20049;-80
2023/05/19 04:34:01;;;;;;;7.35;2.85;;;;;;;15.41;55.95;100697.38;5034847;28;20053;-77
2023/05/19 04:37:00;;;;;;;3.75;2.80;;;;;;;15.51;55.50;100698.97;4998338;28;20056;-77
2023/05/19 04:40:14;;;;;;;4.18;2.70;;;;;;;15.70;55.34;100712.66;4996538;28;20042;-78
2023/05/19 04:47:46;;;;;;;6.68;2.90;;;;;;;15.73;54.60;100709.16;4947966;29;20142;-77
2023/05/19 04:54:02;;;;;;;4.10;2.95;;;;;;;15.65;54.10;100704.03;4947463;28;20047;-78
2023/05/19 04:56:34;;;;;;;4.10;2.60;;;;;;;15.60;54.41;100709.31;4953072;28;20134;-78
2023/05/19 04:59:04;;;;;;;4.75;3.25;;;;;;;15.41;54.23;100677.28;4962866;28;20416;-77
2023/05/19 05:01:42;;;;;;;4.93;2.80;;;;;;;15.43;53.60;100690.34;4976694;28;20133;-77
2023/05/19 05:04:11;;;;;;;5.05;3.30;;;;;;;15.50;53.82;100702.50;4977100;28;20058;-77
2023/05/19 05:06:46;;;;;;;5.57;3.05;;;;;;;15.51;53.94;100709.47;4977228;28;20563;-79
2023/05/19 05:09:29;;;;;;;5.85;3.33;;;;;;;15.36;54.04;100716.66;4994147;28;20141;-77
2023/05/19 05:12:07;;;;;;;6.30;3.20;;;;;;;15.24;54.30;100727.31;4978372;28;20054;-78
2023/05/19 05:14:42;;;;;;;4.38;3.25;;;;;;;15.15;54.33;100727.44;4977891;28;20440;-78
2023/05/19 05:17:16;;;;;;;5.40;3.40;;;;;;;15.13;54.83;100735.31;4978191;28;20057;-76
2023/05/19 05:19:56;;;;;;;5.25;3.40;;;;;;;15.16;54.54;100723.91;4993923;28;20052;-78
2023/05/19 05:22:25;;;;;;;10.93;3.47;;;;;;;15.14;54.88;100721.34;5017178;28;20228;-77
2023/05/19 05:25:31;;;;;;;5.97;3.50;;;;;;;15.28;54.81;100736.00;5037309;28;20137;-77
2023/05/19 05:32:47;;;;;;;4.35;3.40;;;;;;;15.24;54.48;100752.66;5052093;28;20058;-78
2023/05/19 05:35:37;;;;;;;6.43;3.97;;;;;;;15.11;54.74;100747.59;5038006;28;20044;-76
2023/05/19 05:39:04;;;;;;;4.63;3.72;;;;;;;15.02;54.77;100738.09;5031979;28;20103;-81
2023/05/19 05:41:49;;;;;;;6.30;4.18;;;;;;;14.92;55.48;100746.94;5031483;28;20060;-78
2023/05/19 05:53:11;;;;;;;5.03;3.80;;;;;;;14.98;56.64;100759.97;5028646;28;20052;-82
2023/05/19 06:05:02;;;;;;;5.28;3.95;;;;;;;15.29;56.74;100771.81;5053561;28;20189;-81
2023/05/19 06:08:44;;;;;;;5.78;4.10;;;;;;;15.05;56.64;100740.69;5053106;28;20473;-79
2023/05/19 06:11:22;;;;;;;5.13;3.92;;;;;;;15.21;56.39;100779.78;5040482;28;20418;-78
2023/05/19 06:14:54;;;;;;;6.53;4.13;;;;;;;15.25;57.01;100778.88;5033204;28;20079;-79
2023/05/19 06:22:00;;;;;;;7.15;4.85;;;;;;;15.33;56.64;100773.53;4977913;28;20468;-79
2023/05/19 06:24:36;;;;;;;4.93;4.05;;;;;;;15.33;56.27;100779.66;4975910;28;20084;-78
2023/05/19 06:32:10;;;;;;;6.00;4.13;;;;;;;15.32;57.23;100780.53;4926165;29;20075;-79
2023/05/19 06:35:16;;;;;;;4.90;4.20;;;;;;;15.36;56.95;100776.13;4929003;29;20069;-77
2023/05/19 06:37:55;;;;;;;10.20;4.10;;;;;;;15.46;56.92;100789.97;4953102;29;20539;-78
2023/05/19 06:41:25;;;;;;;6.38;4.38;;;;;;;15.51;57.04;100788.16;4909590;29;20049;-78
2023/05/19 06:44:03;;;;;;;6.45;4.35;;;;;;;15.56;57.10;100794.19;4898727;29;20064;-79
2023/05/19 06:50:00;;;;;;;6.28;4.40;;;;;;;15.42;57.31;100783.03;4973720;28;20069;-79
2023/05/19 06:52:59;;;;;;;4.70;4.20;;;;;;;15.46;57.25;100798.69;4975574;28;20417;-81
2023/05/19 06:56:00;;;;;;;7.05;4.95;;;;;;;15.58;57.27;100800.28;4970782;28;20048;-82
2023/05/19 06:59:15;;;;;;;6.25;4.63;;;;;;;15.71;57.57;100781.75;4963461;28;20047;-78
2023/05/19 07:01:44;;;;;;;8.40;5.50;;;;;;;16.01;57.66;100790.06;4961515;28;20457;-77
2023/05/19 07:04:35;;;;;;;6.43;5.10;;;;;;;16.10;57.35;100793.44;4956874;28;20074;-77
2023/05/19 07:07:55;;;;;;;7.60;4.88;;;;;;;16.05;57.29;100781.25;4972930;28;20046;-79
2023/05/19 07:10:27;;;;;;;7.20;5.25;;;;;;;15.98;57.33;100777.03;4963688;28;20141;-76
2023/05/19 07:12:59;;;;;;;11.07;5.25;;;;;;;16.05;57.14;100795.28;5038133;28;20082;-76
2023/05/19 07:15:34;;;;;;;5.75;5.00;;;;;;;15.96;56.94;100785.78;5028862;28;20171;-74
2023/05/19 07:18:12;;;;;;;7.22;5.18;;;;;;;16.07;57.13;100797.84;4980481;28;20053;-76
2023/05/19 07:20:38;;;;;;;6.45;5.35;;;;;;;16.15;57.23;100785.47;5051898;28;20068;-78
2023/05/19 07:23:07;;;;;;;9.05;5.82;;;;;;;16.42;57.13;100804.31;5006253;28;20049;-76
2023/05/19 07:25:36;;;;;;;9.70;5.88;;;;;;;16.41;56.70;100792.06;5014129;28;20470;-73
2023/05/19 07:28:51;;;;;;;7.53;5.97;;;;;;;16.44;56.79;100791.97;5055402;28;20048;-74
2023/05/19 07:32:18;;;;;;;7.82;5.78;;;;;;;16.51;56.58;100798.88;5029212;28;20084;-75
2023/05/19 07:35:59;;;;;;;8.52;6.30;;;;;;;16.72;56.30;100802.00;5040855;28;20517;-76
2023/05/19 07:40:17;;;;;;;9.65;5.90;;;;;;;16.95;55.77;100800.69;5037469;28;20078;-74
2023/05/19 07:49:32;;;;;;;6.78;5.60;;;;;;;17.37;54.62;100808.66;5002682;28;20061;-76
2023/05/19 07:53:52;;;;;;;6.82;5.82;;;;;;;17.34;54.09;100795.56;4923337;29;20090;-75
2023/05/19 07:57:18;;;;;;;7.45;5.63;;;;;;;17.45;54.18;100801.47;4932228;29;20056;-73
2023/05/19 08:01:17;;;;;;;7.30;6.00;;;;;;;17.54;53.50;100786.41;4960935;28;20053;-76
2023/05/19 08:05:02;;;;;;;10.48;6.50;;;;;;;17.69;53.15;100799.19;5019177;28;20404;-77
2023/05/19 08:08:27;;;;;;;9.02;5.65;;;;;;;17.90;52.39;100794.34;5034472;28;20042;-75
2023/05/19 08:12:32;;;;;;;9.27;6.43;;;;;;;18.02;51.81;100788.78;5039566;28;20084;-77
2023/05/19 08:16:30;;;;;;;11.85;6.57;;;;;;;18.28;51.46;100799.63;5034547;28;20045;-76
2023/05/19 08:20:32;;;;;;;9.27;6.78;;;;;;;18.46;51.04;100772.78;5038962;28;20066;-74
2023/05/19 08:24:14;;;;;;;10.00;6.88;;;;;;;18.60;50.27;100792.63;5021592;28;20049;-75
2023/05/19 08:27:43;;;;;;;9.63;7.20;;;;;;;18.61;50.23;100789.97;5015255;28;20037;-74
2023/05/19 08:31:17;;;;;;;8.23;6.32;;;;;;;18.93;49.63;100782.94;5017712;28;20044;-76
2023/05/19 08:36:06;;;;;;;9.88;6.57;;;;;;;19.28;49.16;100782.84;4974191;28;20077;-79
2023/05/19 08:39:46;;;;;;;8.48;7.13;;;;;;;19.63;48.28;100791.50;4969744;28;20130;-77
2023/05/19 08:43:18;;;;;;;7.50;6.70;;;;;;;20.09;48.08;100786.53;4936785;28;20611;-76
2023/05/19 08:46:44;;;;;;;11.00;7.18;;;;;;;20.22;47.38;100784.38;5005441;28;20072;-75
2023/05/19 08:50:13;;;;;;;8.50;6.85;;;;;;;20.33;46.77;100784.00;5013999;28;20049;-78
2023/05/19 08:53:42;;;;;;;10.05;6.28;;;;;;;20.31;46.28;100768.19;5013398;28;20057;-74
2023/05/19 08:57:11;;;;;;;9.32;6.95;;;;;;;20.35;45.80;100782.16;5008114;28;20053;-74
2023/05/19 09:00:39;;;;;;;7.95;6.35;;;;;;;20.55;45.47;100772.69;5010456;28;20117;-73
2023/05/19 09:04:15;;;;;;;9.13;7.03;;;;;;;20.54;45.06;100778.88;5013884;28;20076;-74
2023/05/19 09:07:44;;;;;;;12.35;6.85;;;;;;;20.57;44.77;100776.13;5012458;28;20041;-76
2023/05/19 09:11:14;;;;;;;11.05;6.45;;;;;;;20.78;44.53;100763.94;5016280;28;20108;-76
2023/05/19 09:14:41;;;;;;;8.30;6.28;;;;;;;20.99;43.52;100772.91;4996738;28;20060;-76
2023/05/19 09:18:12;;;;;;;8.88;6.32;;;;;;;21.00;43.15;100758.75;4994217;28;20132;-73
2023/05/19 09:21:47;;;;;;;11.30;6.45;;;;;;;21.26;42.12;100769.25;4980857;28;20054;-75
2023/05/19 09:25:14;;;;;;;11.13;6.15;;;;;;;22.06;41.52;100765.25;5019392;28;20054;-73
2023/05/19 09:28:43;;;;;;;9.23;5.88;;;;;;;23.28;40.06;100767.06;5020497;28;20132;-74
2023/05/19 09:32:30;;;;;;;12.75;5.97;;;;;;;23.55;38.49;100748.06;5013197;28;20057;-73
2023/05/19 09:40:47;;;;;;;12.70;6.63;;;;;;;26.64;35.49;100744.75;4988102;28;20521;-75
2023/05/19 09:44:16;;;;;;;8.90;5.85;;;;;;;28.54;31.78;100735.06;4989662;28;20158;-74
